createdAt,value
2019-03-22T00:00:31.774Z,25.15
2019-03-22T00:03:01.545Z,22.95
2019-03-22T00:05:30.918Z,26.20
2019-03-22T00:08:00.375Z,20.62
2019-03-22T00:10:30.033Z,18.20
2019-03-22T00:12:59.556Z,23.40
2019-03-22T00:15:29.569Z,22.35
2019-03-22T00:17:58.977Z,23.42
2019-03-22T00:20:28.707Z,26.20
2019-03-22T00:22:58.146Z,20.50
2019-03-22T00:25:27.615Z,19.10
2019-03-22T00:27:57.236Z,27.20
2019-03-22T00:30:26.673Z,25.97
2019-03-22T00:32:56.153Z,22.98
2019-03-22T00:35:25.868Z,19.32
2019-03-22T00:37:55.552Z,21.12
2019-03-22T00:40:27.941Z,22.77
2019-03-22T00:42:57.376Z,25.00
2019-03-22T00:45:26.895Z,25.75
2019-03-22T00:47:56.587Z,24.23
2019-03-22T00:50:26.013Z,20.77
2019-03-22T00:52:55.493Z,25.60
2019-03-22T00:55:24.916Z,26.42
2019-03-22T00:57:54.564Z,22.37
2019-03-22T01:00:24.143Z,25.77
2019-03-22T01:02:53.615Z,22.65
2019-03-22T01:05:23.040Z,26.33
2019-03-22T01:07:52.751Z,23.45
2019-03-22T01:10:22.155Z,22.65
2019-03-22T01:12:52.039Z,26.57
2019-03-22T01:15:21.742Z,22.90
2019-03-22T01:17:51.172Z,23.90
2019-03-22T01:20:20.639Z,29.30
2019-03-22T01:22:50.332Z,22.22
2019-03-22T01:25:19.855Z,24.25
2019-03-22T01:27:49.516Z,24.70
2019-03-22T01:30:19.036Z,23.47
2019-03-22T01:32:48.792Z,32.33
2019-03-22T01:35:18.113Z,34.27
2019-03-22T01:37:47.524Z,27.65
2019-03-22T01:40:17.126Z,35.03
2019-03-22T01:42:46.785Z,37.95
2019-03-22T01:45:16.963Z,40.38
2019-03-22T01:47:46.578Z,36.90
2019-03-22T01:50:16.387Z,32.00
2019-03-22T01:52:46.064Z,31.77
2019-03-22T01:55:15.503Z,30.95
2019-03-22T01:57:53.200Z,31.30
2019-03-22T02:00:17.496Z,30.88
2019-03-22T02:02:46.938Z,30.50
2019-03-22T02:05:16.441Z,37.78
2019-03-22T02:07:45.972Z,32.17
2019-03-22T02:10:15.569Z,35.08
2019-03-22T02:12:45.091Z,36.35
2019-03-22T02:15:15.357Z,31.95
2019-03-22T02:17:45.019Z,33.25
2019-03-22T02:20:15.118Z,33.98
2019-03-22T02:22:44.870Z,32.45
2019-03-22T02:25:14.726Z,26.17
2019-03-22T02:27:44.580Z,29.50
2019-03-22T02:30:14.985Z,32.48
2019-03-22T02:33:43.210Z,25.52
2019-03-22T02:36:12.691Z,31.10
2019-03-22T02:38:42.357Z,30.77
2019-03-22T02:41:11.819Z,33.63
2019-03-22T02:43:41.534Z,31.40
2019-03-22T02:46:10.898Z,30.97
2019-03-22T02:48:40.614Z,36.75
2019-03-22T02:51:09.956Z,35.98
2019-03-22T02:53:39.423Z,30.17
2019-03-22T02:56:08.989Z,27.40
2019-03-22T02:58:38.973Z,29.65
2019-03-22T03:01:08.351Z,32.40
2019-03-22T03:03:37.751Z,31.40
2019-03-22T03:06:07.168Z,36.98
2019-03-22T03:08:36.540Z,38.02
2019-03-22T03:11:06.025Z,31.12
2019-03-22T03:13:35.672Z,37.23
2019-03-22T03:16:05.196Z,35.35
2019-03-22T03:18:34.788Z,33.95
2019-03-22T03:21:04.157Z,30.35
2019-03-22T03:23:33.550Z,39.40
2019-03-22T03:26:03.062Z,43.50
2019-03-22T03:28:37.069Z,45.17
2019-03-22T03:31:04.148Z,34.13
2019-03-22T03:33:33.667Z,32.28
2019-03-22T03:36:03.368Z,37.38
2019-03-22T03:38:32.790Z,34.08
2019-03-22T03:41:02.216Z,35.08
2019-03-22T03:43:31.727Z,43.40
2019-03-22T03:46:01.138Z,36.17
2019-03-22T03:48:30.522Z,33.73
2019-03-22T03:50:59.959Z,38.25
2019-03-22T03:53:29.364Z,42.95
2019-03-22T03:55:58.789Z,36.30
2019-03-22T03:58:28.289Z,35.17
2019-03-22T04:00:58.115Z,35.60
2019-03-22T04:03:27.502Z,43.98
2019-03-22T04:05:56.956Z,45.03
2019-03-22T04:08:45.291Z,36.55
2019-03-22T04:11:14.586Z,38.00
2019-03-22T04:13:44.146Z,44.63
2019-03-22T04:16:13.540Z,46.30
2019-03-22T04:18:42.853Z,40.92
2019-03-22T04:21:12.237Z,39.92
2019-03-22T04:23:41.503Z,44.15
2019-03-22T04:26:10.799Z,33.53
2019-03-22T04:28:40.106Z,42.03
2019-03-22T04:31:09.479Z,48.87
2019-03-22T04:33:39.041Z,42.17
2019-03-22T04:36:08.388Z,34.63
2019-03-22T04:38:37.702Z,35.55
2019-03-22T04:41:07.151Z,38.38
2019-03-22T04:43:36.820Z,39.70
2019-03-22T04:46:07.844Z,36.90
2019-03-22T04:48:39.011Z,35.25
2019-03-22T04:51:09.335Z,44.73
2019-03-22T04:53:43.959Z,35.78
2019-03-22T04:56:16.899Z,41.00
2019-03-22T04:58:49.640Z,44.60
2019-03-22T05:01:21.077Z,43.70
2019-03-22T05:03:50.703Z,47.10
2019-03-22T05:06:21.634Z,45.08
2019-03-22T05:08:52.260Z,41.25
2019-03-22T05:11:22.960Z,41.18
2019-03-22T05:13:56.086Z,42.62
2019-03-22T05:16:25.847Z,37.28
2019-03-22T05:18:56.704Z,41.48
2019-03-22T05:21:27.032Z,39.35
2019-03-22T05:23:59.918Z,46.10
2019-03-22T05:26:31.856Z,51.20
2019-03-22T05:29:01.785Z,38.40
2019-03-22T05:31:44.280Z,47.38
2019-03-22T05:34:13.574Z,46.20
2019-03-22T05:36:42.910Z,46.23
2019-03-22T05:39:12.496Z,42.33
2019-03-22T05:41:41.830Z,48.98
2019-03-22T05:44:11.218Z,40.05
2019-03-22T05:46:40.851Z,35.40
2019-03-22T05:49:11.845Z,39.18
2019-03-22T05:51:41.435Z,34.03
2019-03-22T05:54:10.995Z,39.65
2019-03-22T05:56:40.607Z,35.13
2019-03-22T05:59:10.159Z,40.23
2019-03-22T06:01:40.499Z,29.75
2019-03-22T06:04:09.790Z,37.80
2019-03-22T06:06:39.364Z,33.88
2019-03-22T06:09:09.567Z,32.08
2019-03-22T06:11:38.892Z,33.08
2019-03-22T06:14:08.450Z,27.67
2019-03-22T06:16:38.336Z,35.68
2019-03-22T06:19:07.916Z,36.93
2019-03-22T06:21:37.244Z,34.18
2019-03-22T06:24:06.568Z,30.23
2019-03-22T06:26:35.970Z,40.52
2019-03-22T06:29:05.720Z,25.88
2019-03-22T06:31:35.128Z,32.60
2019-03-22T06:34:04.502Z,24.32
2019-03-22T06:36:33.835Z,27.95
2019-03-22T06:39:04.746Z,27.15
2019-03-22T06:41:34.683Z,30.15
2019-03-22T06:44:04.119Z,28.62
2019-03-22T06:46:33.932Z,27.58
2019-03-22T06:49:03.336Z,26.00
2019-03-22T06:51:32.720Z,26.17
2019-03-22T06:54:02.064Z,23.92
2019-03-22T06:56:31.384Z,25.88
2019-03-22T06:59:00.675Z,28.73
2019-03-22T07:01:29.975Z,27.30
2019-03-22T07:03:59.463Z,27.42
2019-03-22T07:06:28.918Z,27.98
2019-03-22T07:08:58.276Z,26.12
2019-03-22T07:11:27.886Z,23.65
2019-03-22T07:13:57.238Z,25.85
2019-03-22T07:16:26.794Z,29.67
2019-03-22T07:18:56.435Z,25.70
2019-03-22T07:21:26.239Z,26.95
2019-03-22T07:23:56.177Z,27.13
2019-03-22T07:26:25.542Z,25.08
2019-03-22T07:28:54.882Z,25.68
2019-03-22T07:31:24.521Z,25.68
2019-03-22T07:33:54.070Z,24.87
2019-03-22T07:36:23.428Z,26.12
2019-03-22T07:38:52.776Z,23.70
2019-03-22T07:41:22.160Z,25.07
2019-03-22T07:43:51.609Z,24.47
2019-03-22T07:46:20.941Z,28.90
2019-03-22T07:48:50.383Z,23.13
2019-03-22T07:51:19.964Z,24.10
2019-03-22T07:53:49.892Z,23.43
2019-03-22T07:56:19.288Z,25.73
2019-03-22T07:58:48.616Z,24.67
2019-03-22T08:01:17.968Z,30.33
2019-03-22T08:03:47.440Z,24.12
2019-03-22T08:06:16.935Z,25.02
2019-03-22T08:08:46.309Z,27.43
2019-03-22T08:11:15.696Z,27.82
2019-03-22T08:13:45.036Z,26.17
2019-03-22T08:16:14.458Z,25.70
2019-03-22T08:18:43.828Z,25.23
2019-03-22T08:21:13.223Z,27.05
2019-03-22T08:23:42.623Z,26.20
2019-03-22T08:26:12.045Z,23.40
2019-03-22T08:28:41.410Z,24.02
2019-03-22T08:31:10.768Z,28.03
2019-03-22T08:33:40.689Z,27.83
2019-03-22T08:36:10.048Z,26.47
2019-03-22T08:38:39.710Z,23.03
2019-03-22T08:41:09.098Z,25.13
2019-03-22T08:43:38.668Z,31.63
2019-03-22T08:46:08.036Z,24.27
2019-03-22T08:48:37.395Z,29.40
2019-03-22T08:51:06.719Z,29.27
2019-03-22T08:53:36.146Z,28.73
2019-03-22T08:56:05.602Z,29.03
2019-03-22T08:58:34.873Z,29.40
2019-03-22T09:01:04.197Z,33.57
2019-03-22T09:03:33.570Z,34.37
2019-03-22T09:06:02.955Z,31.47
2019-03-22T09:08:32.506Z,37.70
2019-03-22T09:11:01.912Z,36.97
2019-03-22T09:13:31.187Z,35.10
2019-03-22T09:16:00.785Z,41.93
2019-03-22T09:18:30.472Z,41.93
2019-03-22T09:20:59.816Z,43.40
2019-03-22T09:23:29.153Z,38.47
2019-03-22T09:25:58.535Z,35.47
2019-03-22T09:28:29.214Z,39.53
2019-03-22T09:31:09.763Z,48.60
2019-03-22T09:33:29.870Z,46.00
2019-03-22T09:35:59.199Z,45.97
2019-03-22T09:38:28.756Z,43.97
2019-03-22T09:40:58.856Z,44.03
2019-03-22T09:43:28.261Z,37.00
2019-03-22T09:45:57.859Z,38.57
2019-03-22T09:48:27.255Z,40.87
2019-03-22T09:50:56.877Z,41.70
2019-03-22T09:53:26.219Z,36.80
2019-03-22T09:55:55.950Z,41.40
2019-03-22T09:58:25.796Z,44.83
2019-03-22T10:00:55.699Z,39.40
2019-03-22T10:03:25.358Z,40.20
2019-03-22T10:05:54.705Z,41.63
2019-03-22T10:08:24.154Z,37.67
2019-03-22T10:10:53.460Z,44.17
2019-03-22T10:13:23.061Z,40.17
2019-03-22T10:15:52.330Z,46.20
2019-03-22T10:18:21.931Z,39.00
2019-03-22T10:20:51.468Z,41.57
2019-03-22T10:23:22.418Z,46.40
2019-03-22T10:25:51.896Z,48.93
2019-03-22T10:28:21.252Z,45.57
2019-03-22T10:30:50.868Z,41.63
2019-03-22T10:33:23.037Z,44.93
2019-03-22T10:35:51.126Z,37.27
2019-03-22T10:38:30.855Z,43.57
2019-03-22T10:40:51.495Z,42.40
2019-03-22T10:43:20.963Z,42.83
2019-03-22T10:45:50.541Z,42.73
2019-03-22T10:48:19.842Z,45.43
2019-03-22T10:50:49.125Z,43.40
2019-03-22T10:53:18.624Z,43.30
2019-03-22T10:55:48.119Z,44.43
2019-03-22T10:58:21.289Z,39.10
2019-03-22T11:00:48.573Z,43.30
2019-03-22T11:03:17.818Z,39.87
2019-03-22T11:05:47.411Z,43.23
2019-03-22T11:08:17.139Z,45.10
2019-03-22T11:10:46.405Z,44.40
2019-03-22T11:13:15.784Z,43.37
2019-03-22T11:15:48.700Z,38.80
2019-03-22T11:18:16.155Z,40.63
2019-03-22T11:20:45.817Z,40.70
2019-03-22T11:23:15.206Z,42.30
2019-03-22T11:25:44.583Z,45.80
2019-03-22T11:28:13.929Z,43.50
2019-03-22T11:30:43.343Z,40.10
2019-03-22T11:33:12.908Z,41.00
2019-03-22T11:35:42.188Z,40.50
2019-03-22T11:38:11.483Z,43.77
2019-03-22T11:40:40.967Z,38.77
2019-03-22T11:43:10.316Z,41.80
2019-03-22T11:45:39.676Z,41.00
2019-03-22T11:48:08.943Z,36.53
2019-03-22T11:50:38.449Z,34.10
2019-03-22T11:53:07.690Z,42.93
2019-03-22T11:55:36.930Z,39.50
2019-03-22T11:58:06.419Z,42.13
2019-03-22T12:00:35.700Z,40.57
2019-03-22T12:03:05.052Z,40.83
2019-03-22T12:05:40.366Z,41.20
2019-03-22T12:08:05.727Z,39.57
2019-03-22T12:10:34.958Z,40.07
2019-03-22T12:13:04.751Z,45.03
2019-03-22T12:15:34.006Z,38.53
2019-03-22T12:18:03.315Z,40.97
2019-03-22T12:20:32.852Z,37.87
2019-03-22T12:23:02.328Z,37.23
2019-03-22T12:25:31.749Z,40.50
2019-03-22T12:28:01.064Z,36.57
2019-03-22T12:30:30.455Z,36.83
2019-03-22T12:32:59.732Z,38.70
2019-03-22T12:35:29.103Z,40.73
2019-03-22T12:37:58.537Z,37.63
2019-03-22T12:40:27.892Z,39.97
2019-03-22T12:42:57.158Z,33.83
2019-03-22T12:45:26.817Z,34.50
2019-03-22T12:47:56.511Z,36.10
2019-03-22T12:50:25.916Z,34.70
2019-03-22T12:52:55.175Z,36.50
2019-03-22T12:55:24.707Z,36.43
2019-03-22T12:57:54.170Z,35.63
2019-03-22T13:00:23.691Z,33.47
2019-03-22T13:02:54.439Z,29.53
2019-03-22T13:05:26.490Z,37.83
2019-03-22T13:07:56.032Z,35.20
2019-03-22T13:10:26.255Z,37.60
2019-03-22T13:12:55.883Z,33.97
2019-03-22T13:15:25.254Z,31.80
2019-03-22T13:17:54.512Z,32.97
2019-03-22T13:20:23.843Z,33.50
2019-03-22T13:22:53.418Z,31.70
2019-03-22T13:25:25.468Z,30.90
2019-03-22T13:27:54.727Z,30.13
2019-03-22T13:30:35.042Z,31.37
2019-03-22T13:33:04.646Z,30.27
2019-03-22T13:35:34.136Z,28.87
2019-03-22T13:38:03.606Z,30.87
2019-03-22T13:40:33.193Z,29.23
2019-03-22T13:43:02.843Z,29.50
2019-03-22T13:45:32.199Z,25.03
2019-03-22T13:48:01.751Z,25.80
2019-03-22T13:50:31.472Z,28.93
2019-03-22T13:53:01.039Z,29.30
2019-03-22T13:55:30.534Z,24.67
2019-03-22T13:58:00.131Z,24.07
2019-03-22T14:00:29.645Z,22.47
2019-03-22T14:03:02.806Z,25.70
2019-03-22T14:05:29.952Z,26.07
2019-03-22T14:08:02.294Z,26.30
2019-03-22T14:10:35.427Z,28.50
2019-03-22T14:13:05.660Z,26.97
2019-03-22T14:15:35.067Z,24.30
2019-03-22T14:18:06.035Z,25.80
2019-03-22T14:20:35.939Z,26.63
2019-03-22T14:23:05.491Z,26.57
2019-03-22T14:25:34.758Z,20.33
2019-03-22T14:28:04.359Z,24.93
2019-03-22T14:30:33.639Z,27.37
2019-03-22T14:33:12.575Z,26.40
2019-03-22T14:35:33.859Z,25.83
2019-03-22T14:38:03.203Z,23.83
2019-03-22T14:40:32.475Z,23.50
2019-03-22T14:43:02.207Z,27.83
2019-03-22T14:45:31.590Z,27.37
2019-03-22T14:48:01.040Z,25.27
2019-03-22T14:50:30.349Z,26.57
2019-03-22T14:53:00.036Z,30.77
2019-03-22T14:55:29.294Z,28.57
2019-03-22T14:57:58.843Z,24.83
2019-03-22T15:00:31.651Z,28.50
2019-03-22T15:03:29.219Z,25.97
2019-03-22T15:05:58.646Z,24.10
2019-03-22T15:08:28.684Z,30.33
2019-03-22T15:11:01.694Z,26.80
2019-03-22T15:13:59.930Z,25.23
2019-03-22T15:17:00.689Z,25.43
2019-03-22T15:20:07.480Z,26.87
2019-03-22T15:23:01.733Z,26.90
2019-03-22T15:25:48.507Z,24.77
2019-03-22T15:28:34.667Z,25.03
2019-03-22T15:31:19.588Z,25.33
2019-03-22T15:33:57.587Z,25.73
2019-03-22T15:36:41.974Z,33.23
2019-03-22T15:39:44.224Z,28.90
2019-03-22T15:42:13.487Z,29.20
2019-03-22T15:44:42.802Z,30.13
2019-03-22T15:47:12.215Z,26.50
2019-03-22T15:49:41.506Z,25.67
2019-03-22T15:52:10.915Z,30.80
2019-03-22T15:54:40.232Z,26.90
2019-03-22T15:57:09.666Z,28.67
2019-03-22T15:59:39.000Z,32.37
2019-03-22T16:02:08.847Z,31.20
2019-03-22T16:04:38.290Z,37.13
2019-03-22T16:07:07.991Z,32.00
2019-03-22T16:09:37.249Z,32.40
2019-03-22T16:12:07.860Z,33.23
2019-03-22T16:14:37.391Z,31.33
2019-03-22T16:17:06.789Z,33.13
2019-03-22T16:19:36.400Z,28.97
2019-03-22T16:22:07.158Z,32.20
2019-03-22T16:24:36.725Z,29.83
2019-03-22T16:27:06.301Z,27.10
2019-03-22T16:29:35.810Z,24.80
2019-03-22T16:32:05.460Z,29.70
2019-03-22T16:34:34.835Z,25.10
2019-03-22T16:37:04.757Z,25.50
2019-03-22T16:39:34.153Z,26.25
2019-03-22T16:42:03.776Z,22.43
2019-03-22T16:44:33.499Z,22.32
2019-03-22T16:47:02.774Z,21.53
2019-03-22T16:49:32.094Z,20.90
2019-03-22T16:52:20.451Z,18.80
2019-03-22T16:55:03.867Z,22.93
2019-03-22T16:57:33.210Z,27.40
2019-03-22T17:00:02.539Z,24.53
2019-03-22T17:02:31.851Z,30.45
2019-03-22T17:05:01.913Z,27.40
2019-03-22T17:07:31.342Z,24.47
2019-03-22T17:10:00.990Z,26.13
2019-03-22T17:12:30.728Z,24.63
2019-03-22T17:15:07.691Z,25.90
2019-03-22T17:17:37.352Z,23.05
2019-03-22T17:20:07.288Z,23.32
2019-03-22T17:22:36.732Z,19.15
2019-03-22T17:25:06.461Z,21.35
2019-03-22T17:27:36.064Z,21.93
2019-03-22T17:30:06.463Z,22.67
2019-03-22T17:32:35.789Z,28.67
2019-03-22T17:35:05.327Z,27.07
2019-03-22T17:37:34.678Z,25.35
2019-03-22T17:40:04.424Z,24.85
2019-03-22T17:42:33.730Z,22.95
2019-03-22T17:45:03.461Z,23.42
2019-03-22T17:47:32.890Z,22.40
2019-03-22T17:50:02.346Z,26.60
2019-03-22T17:52:31.783Z,28.05
2019-03-22T17:55:01.781Z,25.27
2019-03-22T17:57:31.233Z,28.45
2019-03-22T18:00:00.799Z,29.02
2019-03-22T18:02:30.236Z,28.45
2019-03-22T18:04:59.615Z,23.30
2019-03-22T18:07:30.487Z,27.32
2019-03-22T18:10:00.968Z,25.37
2019-03-22T18:12:30.627Z,31.37
2019-03-22T18:15:00.318Z,24.18
2019-03-22T18:17:31.937Z,25.70
2019-03-22T18:20:01.648Z,26.07
2019-03-22T18:22:31.062Z,24.35
2019-03-22T18:25:04.060Z,25.17
2019-03-22T18:27:33.996Z,25.85
2019-03-22T18:30:05.228Z,25.15
2019-03-22T18:32:35.569Z,22.85
2019-03-22T18:35:05.359Z,25.17
2019-03-22T18:37:34.703Z,24.10
2019-03-22T18:40:04.942Z,23.73
2019-03-22T18:42:38.540Z,28.42
2019-03-22T18:45:09.384Z,27.02
2019-03-22T18:47:39.014Z,24.55
2019-03-22T18:50:08.726Z,27.60
2019-03-22T18:52:38.431Z,29.42
2019-03-22T18:55:08.267Z,26.55
2019-03-22T18:57:38.107Z,26.05
2019-03-22T19:00:07.940Z,26.95
2019-03-22T19:02:37.368Z,29.85
2019-03-22T19:05:07.797Z,30.80
2019-03-22T19:07:37.515Z,29.60
2019-03-22T19:10:08.739Z,26.68
2019-03-22T19:12:38.647Z,30.50
2019-03-22T19:15:08.821Z,31.45
2019-03-22T19:17:41.445Z,33.95
2019-03-22T19:20:11.571Z,32.78
2019-03-22T19:22:42.033Z,34.73
2019-03-22T19:25:16.010Z,33.65
2019-03-22T19:27:45.917Z,32.38
2019-03-22T19:30:18.449Z,34.70
2019-03-22T19:32:47.834Z,33.78
2019-03-22T19:35:21.155Z,33.40
2019-03-22T19:37:53.319Z,29.67
2019-03-22T19:40:23.025Z,29.72
2019-03-22T19:42:52.817Z,27.85
2019-03-22T19:45:22.433Z,26.77
2019-03-22T19:47:51.877Z,29.67
2019-03-22T19:50:21.565Z,27.45
2019-03-22T19:52:51.065Z,27.65
2019-03-22T19:55:20.601Z,27.65
2019-03-22T19:57:50.119Z,25.68
2019-03-22T20:00:19.983Z,30.85
2019-03-22T20:02:49.559Z,31.25
2019-03-22T20:05:29.368Z,34.45
2019-03-22T20:07:59.134Z,33.33
2019-03-22T20:10:28.854Z,50.40
2019-03-22T20:12:58.404Z,40.33
2019-03-22T20:15:28.014Z,41.85
2019-03-22T20:18:03.874Z,41.92
2019-03-22T20:20:33.460Z,49.03
2019-03-22T20:23:02.799Z,44.80
2019-03-22T20:25:32.283Z,53.65
2019-03-22T20:28:01.613Z,51.23
2019-03-22T20:30:31.016Z,42.05
2019-03-22T20:33:00.512Z,48.58
2019-03-22T20:35:29.859Z,38.25
2019-03-22T20:37:59.250Z,40.25
2019-03-22T20:40:28.593Z,43.65
2019-03-22T20:42:57.981Z,38.08
2019-03-22T20:45:27.347Z,41.58
2019-03-22T20:47:56.663Z,38.85
2019-03-22T20:50:35.432Z,34.27
2019-03-22T20:52:57.062Z,42.35
2019-03-22T20:55:26.390Z,40.70
2019-03-22T20:57:55.930Z,35.63
2019-03-22T21:00:27.384Z,38.05
2019-03-22T21:02:56.377Z,34.40
2019-03-22T21:05:27.260Z,36.77
2019-03-22T21:07:57.080Z,43.58
2019-03-22T21:10:26.432Z,44.27
2019-03-22T21:12:55.785Z,38.98
2019-03-22T21:15:25.162Z,41.05
2019-03-22T21:17:54.497Z,39.53
2019-03-22T21:20:24.004Z,38.50
2019-03-22T21:22:53.392Z,39.10
2019-03-22T21:25:22.856Z,34.05
2019-03-22T21:27:52.605Z,35.73
2019-03-22T21:30:22.586Z,39.33
2019-03-22T21:32:52.235Z,34.23
2019-03-22T21:35:22.978Z,33.80
2019-03-22T21:37:52.482Z,40.78
2019-03-22T21:40:21.884Z,37.67
2019-03-22T21:42:51.432Z,37.08
2019-03-22T21:45:20.914Z,38.63
2019-03-22T21:47:50.214Z,37.42
2019-03-22T21:50:19.571Z,35.20
2019-03-22T21:52:49.130Z,34.50
2019-03-22T21:55:18.614Z,38.45
2019-03-22T21:57:48.154Z,36.63
2019-03-22T22:00:17.674Z,32.00
2019-03-22T22:02:47.100Z,33.95
2019-03-22T22:05:17.059Z,35.35
2019-03-22T22:07:46.438Z,34.30
2019-03-22T22:10:15.863Z,36.93
2019-03-22T22:12:45.453Z,43.20
2019-03-22T22:15:15.003Z,39.20
2019-03-22T22:17:44.393Z,37.13
2019-03-22T22:20:14.034Z,38.00
2019-03-22T22:22:43.671Z,41.05
2019-03-22T22:25:13.416Z,41.53
2019-03-22T22:27:42.736Z,36.90
2019-03-22T22:30:12.735Z,41.18
2019-03-22T22:32:42.149Z,39.35
2019-03-22T22:35:11.773Z,37.23
2019-03-22T22:37:41.223Z,51.95
2019-03-22T22:40:11.049Z,45.05
2019-03-22T22:42:40.524Z,42.62
2019-03-22T22:45:10.497Z,37.70
2019-03-22T22:47:40.007Z,37.00
2019-03-22T22:50:10.180Z,44.25
2019-03-22T22:52:40.174Z,40.03
2019-03-22T22:55:10.049Z,37.17
2019-03-22T22:57:39.432Z,39.15
2019-03-22T23:00:14.470Z,48.48
2019-03-22T23:02:44.196Z,42.30
2019-03-22T23:05:13.967Z,37.08
2019-03-22T23:07:43.606Z,39.13
2019-03-22T23:10:13.255Z,41.55
2019-03-22T23:12:42.819Z,51.45
2019-03-22T23:15:13.168Z,44.42
2019-03-22T23:17:43.039Z,42.23
2019-03-22T23:20:12.641Z,41.70
2019-03-22T23:22:42.304Z,43.87
2019-03-22T23:25:12.106Z,39.50
2019-03-22T23:27:41.538Z,42.13
2019-03-22T23:30:11.453Z,40.80
2019-03-22T23:32:40.947Z,38.73
2019-03-22T23:35:10.460Z,41.70
2019-03-22T23:37:40.099Z,41.40
2019-03-22T23:40:10.288Z,50.00
2019-03-22T23:42:40.536Z,56.45
2019-03-22T23:45:10.320Z,49.80
2019-03-22T23:47:39.668Z,39.95
2019-03-22T23:50:09.344Z,37.05
2019-03-22T23:52:38.748Z,46.40
2019-03-22T23:55:08.621Z,41.20
2019-03-22T23:57:37.990Z,37.23
